createdAt,value
2018-08-18T00:03:04.820Z,99.90
2018-08-18T00:06:59.579Z,99.90
2018-08-18T00:10:53.510Z,99.90
2018-08-18T00:14:47.435Z,99.90
2018-08-18T00:18:41.331Z,99.90
2018-08-18T00:22:35.264Z,99.90
2018-08-18T00:26:29.823Z,99.90
2018-08-18T00:30:26.554Z,99.90
2018-08-18T00:34:20.615Z,99.90
2018-08-18T00:38:14.373Z,99.90
2018-08-18T00:42:08.286Z,99.90
2018-08-18T00:46:02.322Z,99.90
2018-08-18T00:49:56.531Z,99.90
2018-08-18T00:53:50.478Z,99.90
2018-08-18T00:57:44.493Z,99.90
2018-08-18T01:01:38.386Z,99.90
2018-08-18T01:05:32.263Z,99.90
2018-08-18T01:09:26.202Z,99.90
2018-08-18T01:13:20.304Z,99.90
2018-08-18T01:17:14.227Z,99.90
2018-08-18T01:21:08.241Z,99.90
2018-08-18T01:25:02.168Z,99.90
2018-08-18T01:29:06.292Z,99.90
2018-08-18T01:33:00.268Z,99.90
2018-08-18T01:36:54.245Z,99.90
2018-08-18T01:40:48.257Z,99.90
2018-08-18T01:44:42.198Z,99.90
2018-08-18T01:48:36.089Z,99.90
2018-08-18T01:52:30.111Z,99.90
2018-08-18T01:56:30.027Z,99.90
2018-08-18T02:00:25.466Z,99.90
2018-08-18T02:04:19.817Z,99.90
2018-08-18T02:08:13.748Z,99.90
2018-08-18T02:12:08.147Z,99.90
2018-08-18T02:16:02.086Z,99.90
2018-08-18T02:19:56.425Z,99.90
2018-08-18T02:23:50.394Z,99.90
2018-08-18T02:27:44.477Z,99.90
2018-08-18T02:31:38.460Z,99.90
2018-08-18T02:35:32.394Z,99.90
2018-08-18T02:39:26.373Z,99.90
2018-08-18T02:43:23.468Z,99.90
2018-08-18T02:47:17.479Z,99.90
2018-08-18T02:51:11.382Z,99.90
2018-08-18T02:55:07.736Z,99.90
2018-08-18T02:59:02.331Z,99.90
2018-08-18T03:02:56.307Z,99.90
2018-08-18T03:06:51.131Z,99.90
2018-08-18T03:10:45.031Z,99.90
2018-08-18T03:14:40.195Z,99.90
2018-08-18T03:18:55.478Z,99.90
2018-08-18T03:22:49.408Z,99.90
2018-08-18T03:26:51.879Z,99.90
2018-08-18T03:30:45.843Z,99.90
2018-08-18T03:34:39.771Z,99.90
2018-08-18T03:38:33.701Z,99.90
2018-08-18T03:42:35.791Z,99.90
2018-08-18T03:46:29.825Z,99.90
2018-08-18T03:50:24.115Z,99.90
2018-08-18T03:54:18.092Z,99.90
2018-08-18T03:58:12.016Z,99.90
2018-08-18T04:02:06.055Z,99.90
2018-08-18T04:05:59.876Z,99.90
2018-08-18T04:09:54.600Z,99.90
2018-08-18T04:13:48.529Z,99.90
2018-08-18T04:17:42.501Z,99.90
2018-08-18T04:21:36.472Z,99.90
2018-08-18T04:25:30.379Z,99.90
2018-08-18T04:29:24.367Z,99.90
2018-08-18T04:33:18.329Z,99.90
2018-08-18T04:37:12.309Z,99.90
2018-08-18T04:41:06.214Z,99.90
2018-08-18T04:45:00.164Z,99.90
2018-08-18T04:48:54.767Z,99.90
2018-08-18T04:52:49.125Z,99.90
2018-08-18T04:56:43.176Z,99.90
2018-08-18T05:00:37.108Z,99.90
2018-08-18T05:04:31.050Z,99.90
2018-08-18T05:08:24.899Z,99.90
2018-08-18T05:12:18.842Z,99.90
2018-08-18T05:16:12.825Z,99.90
2018-08-18T05:20:11.990Z,99.90
2018-08-18T05:24:20.182Z,99.90
2018-08-18T05:28:14.133Z,99.90
2018-08-18T05:32:09.234Z,99.90
2018-08-18T05:36:03.200Z,99.90
2018-08-18T05:39:57.210Z,99.90
2018-08-18T05:43:51.226Z,99.90
2018-08-18T05:47:45.534Z,99.90
2018-08-18T05:51:44.124Z,99.90
2018-08-18T05:55:38.068Z,99.90
2018-08-18T05:59:32.196Z,99.90
2018-08-18T06:03:26.180Z,99.90
2018-08-18T06:07:20.186Z,99.90
2018-08-18T06:11:14.190Z,99.90
2018-08-18T06:15:08.181Z,99.90
2018-08-18T06:19:02.135Z,99.90
2018-08-18T06:22:56.077Z,99.90
2018-08-18T06:26:50.073Z,99.90
2018-08-18T06:30:44.107Z,99.90
2018-08-18T06:34:38.098Z,99.90
2018-08-18T06:38:31.992Z,99.90
2018-08-18T06:42:33.711Z,99.90
2018-08-18T06:46:27.857Z,99.90
2018-08-18T06:50:23.759Z,99.90
2018-08-18T06:54:17.736Z,99.90
2018-08-18T06:58:11.766Z,99.90
2018-08-18T07:02:05.811Z,99.90
2018-08-18T07:05:59.813Z,99.90
2018-08-18T07:09:53.667Z,99.90
2018-08-18T07:13:48.101Z,99.90
2018-08-18T07:17:42.188Z,99.90
2018-08-18T07:21:36.274Z,99.90
2018-08-18T07:25:30.224Z,99.90
2018-08-18T07:29:24.251Z,99.90
2018-08-18T07:33:18.221Z,99.20
2018-08-18T07:37:12.335Z,98.70
2018-08-18T07:41:06.271Z,98.60
2018-08-18T07:45:00.202Z,98.40
2018-08-18T07:48:54.111Z,96.80
2018-08-18T07:52:48.226Z,96.90
2018-08-18T07:56:42.085Z,96.90
2018-08-18T08:00:37.111Z,96.10
2018-08-18T08:04:31.117Z,95.80
2018-08-18T08:08:28.769Z,95.10
2018-08-18T08:12:22.857Z,96.00
2018-08-18T08:16:16.748Z,96.20
2018-08-18T08:20:10.745Z,96.40
2018-08-18T08:24:04.784Z,95.70
2018-08-18T08:27:58.859Z,93.50
2018-08-18T08:31:53.103Z,91.60
2018-08-18T08:35:47.022Z,92.70
2018-08-18T08:39:42.167Z,93.00
2018-08-18T08:43:36.191Z,91.80
2018-08-18T08:47:30.150Z,92.10
2018-08-18T08:51:24.427Z,92.20
2018-08-18T08:55:19.666Z,91.80
2018-08-18T08:59:13.691Z,91.80
2018-08-18T09:03:07.735Z,91.10
2018-08-18T09:07:01.712Z,91.10
2018-08-18T09:10:55.724Z,91.30
2018-08-18T09:14:49.690Z,90.40
2018-08-18T09:18:43.709Z,90.30
2018-08-18T09:23:08.835Z,90.50
2018-08-18T09:27:04.627Z,90.20
2018-08-18T09:30:58.673Z,89.70
2018-08-18T09:34:53.502Z,90.00
2018-08-18T09:38:47.481Z,89.20
2018-08-18T09:42:41.499Z,90.10
2018-08-18T09:46:35.548Z,89.40
2018-08-18T09:50:29.546Z,89.80
2018-08-18T09:54:23.515Z,89.30
2018-08-18T09:58:17.445Z,87.80
2018-08-18T10:02:13.227Z,87.00
2018-08-18T10:06:07.263Z,86.40
2018-08-18T10:10:01.262Z,84.50
2018-08-18T10:13:55.287Z,84.90
2018-08-18T10:17:49.296Z,86.30
2018-08-18T10:21:43.448Z,84.30
2018-08-18T10:25:37.403Z,84.10
2018-08-18T10:29:31.285Z,84.30
2018-08-18T10:33:25.393Z,82.50
2018-08-18T10:37:19.339Z,82.20
2018-08-18T10:47:37.190Z,80.40
2018-08-18T10:51:42.432Z,80.80
2018-08-18T10:55:36.400Z,79.10
2018-08-18T10:59:41.937Z,78.40
2018-08-18T11:03:35.855Z,77.70
2018-08-18T11:07:29.850Z,76.20
2018-08-18T11:11:23.848Z,74.70
2018-08-18T11:15:18.015Z,74.60
2018-08-18T11:19:12.103Z,73.50
2018-08-18T11:23:11.906Z,73.80
2018-08-18T11:27:05.958Z,72.50
2018-08-18T11:30:59.939Z,73.00
2018-08-18T11:34:54.815Z,73.20
2018-08-18T11:38:49.062Z,72.30
2018-08-18T11:42:43.320Z,71.40
2018-08-18T11:46:42.506Z,71.60
2018-08-18T11:50:36.586Z,70.70
2018-08-18T11:54:31.211Z,70.00
2018-08-18T11:58:25.654Z,70.30
2018-08-18T12:02:20.171Z,68.10
2018-08-18T12:06:20.691Z,68.90
2018-08-18T12:10:14.811Z,68.30
2018-08-18T12:14:08.820Z,68.90
2018-08-18T12:18:03.139Z,70.20
2018-08-18T12:21:57.435Z,70.80
2018-08-18T12:25:58.615Z,69.50
2018-08-18T12:29:53.408Z,69.40
2018-08-18T12:33:47.323Z,68.80
2018-08-18T12:37:41.331Z,66.40
2018-08-18T12:41:35.292Z,66.90
2018-08-18T12:45:29.208Z,66.60
2018-08-18T12:49:23.249Z,63.10
2018-08-18T12:53:17.329Z,63.70
2018-08-18T12:57:11.316Z,64.30
2018-08-18T13:01:05.313Z,63.70
2018-08-18T13:04:59.324Z,61.50
2018-08-18T13:08:53.370Z,59.60
2018-08-18T13:12:47.393Z,60.20
2018-08-18T13:16:41.354Z,59.90
2018-08-18T13:20:35.367Z,60.20
2018-08-18T13:24:30.974Z,60.20
2018-08-18T13:28:24.868Z,59.80
2018-08-18T13:32:18.853Z,60.10
2018-08-18T13:36:12.920Z,59.40
2018-08-18T13:40:10.183Z,57.40
2018-08-18T13:44:04.096Z,55.90
2018-08-18T13:48:02.949Z,55.80
2018-08-18T13:51:56.942Z,55.70
2018-08-18T13:55:50.883Z,56.30
2018-08-18T13:59:45.287Z,55.60
2018-08-18T14:03:40.124Z,55.20
2018-08-18T14:07:47.658Z,56.90
2018-08-18T14:11:42.243Z,55.10
2018-08-18T14:15:36.904Z,54.00
2018-08-18T14:19:30.855Z,53.40
2018-08-18T14:23:25.040Z,54.20
2018-08-18T14:27:21.459Z,54.00
2018-08-18T14:31:15.377Z,54.20
2018-08-18T14:35:09.341Z,55.10
2018-08-18T14:39:03.651Z,53.60
2018-08-18T14:42:57.644Z,53.00
2018-08-18T14:46:51.609Z,53.00
2018-08-18T14:50:46.154Z,54.10
2018-08-18T14:54:40.448Z,54.70
2018-08-18T14:58:34.773Z,54.40
2018-08-18T15:02:28.841Z,54.40
2018-08-18T15:06:23.663Z,55.00
2018-08-18T15:10:35.536Z,54.80
2018-08-18T15:14:30.211Z,54.80
2018-08-18T15:18:24.106Z,55.20
2018-08-18T15:22:18.027Z,55.40
2018-08-18T15:26:11.999Z,56.00
2018-08-18T15:30:06.009Z,56.20
2018-08-18T15:34:00.016Z,56.20
2018-08-18T15:37:53.980Z,56.70
2018-08-18T15:41:48.547Z,55.50
2018-08-18T15:46:01.851Z,55.20
2018-08-18T15:49:56.136Z,55.20
2018-08-18T15:54:05.800Z,53.30
2018-08-18T15:57:59.864Z,53.30
2018-08-18T16:01:53.816Z,52.90
2018-08-18T16:05:47.853Z,52.50
2018-08-18T16:09:41.790Z,52.10
2018-08-18T16:13:36.150Z,52.20
2018-08-18T16:17:30.270Z,52.00
2018-08-18T16:21:24.778Z,51.10
2018-08-18T16:25:32.996Z,50.90
2018-08-18T16:29:28.214Z,50.50
2018-08-18T16:33:22.129Z,50.50
2018-08-18T16:37:16.444Z,50.80
2018-08-18T16:41:10.364Z,51.90
2018-08-18T16:45:05.187Z,51.20
2018-08-18T16:48:59.500Z,51.10
2018-08-18T16:52:53.593Z,51.00
2018-08-18T16:56:47.945Z,51.20
2018-08-18T17:00:57.897Z,52.00
2018-08-18T17:04:51.808Z,52.50
2018-08-18T17:08:45.857Z,53.60
2018-08-18T17:12:39.747Z,57.00
2018-08-18T17:16:33.810Z,59.00
2018-08-18T17:20:27.811Z,59.30
2018-08-18T17:24:21.732Z,63.00
2018-08-18T17:28:15.742Z,65.10
2018-08-18T17:32:10.115Z,68.60
2018-08-18T17:36:04.210Z,71.00
2018-08-18T17:39:58.187Z,72.00
2018-08-18T17:43:52.091Z,74.00
2018-08-18T17:47:50.268Z,76.00
2018-08-18T17:51:57.219Z,77.50
2018-08-18T17:56:07.225Z,79.40
2018-08-18T18:00:05.415Z,81.00
2018-08-18T18:03:59.416Z,82.80
2018-08-18T18:07:57.063Z,84.00
2018-08-18T18:11:51.191Z,85.00
2018-08-18T18:15:47.659Z,86.00
2018-08-18T18:19:41.610Z,86.50
2018-08-18T18:23:35.577Z,87.20
2018-08-18T18:27:29.604Z,88.70
2018-08-18T18:31:23.887Z,90.00
2018-08-18T18:35:19.015Z,90.40
2018-08-18T18:39:12.992Z,91.00
2018-08-18T18:43:07.108Z,91.50
2018-08-18T18:47:01.017Z,92.00
2018-08-18T18:50:54.990Z,92.50
2018-08-18T18:54:49.140Z,92.80
2018-08-18T18:58:43.463Z,93.10
2018-08-18T19:02:43.879Z,93.30
2018-08-18T19:06:52.178Z,93.60
2018-08-18T19:10:46.414Z,93.90
2018-08-18T19:14:40.498Z,94.00
2018-08-18T19:18:34.456Z,94.10
2018-08-18T19:22:28.503Z,94.40
2018-08-18T19:26:22.543Z,94.70
2018-08-18T19:30:16.630Z,94.70
2018-08-18T19:34:12.578Z,95.10
2018-08-18T19:38:06.825Z,95.30
2018-08-18T19:42:07.153Z,95.50
2018-08-18T19:46:01.058Z,95.70
2018-08-18T19:49:55.114Z,96.00
2018-08-18T19:53:49.454Z,96.40
2018-08-18T19:57:43.432Z,96.50
2018-08-18T20:01:37.586Z,96.80
2018-08-18T20:05:31.498Z,97.00
2018-08-18T20:09:25.443Z,97.10
2018-08-18T20:13:20.349Z,97.30
2018-08-18T20:17:14.318Z,97.50
2018-08-18T20:21:09.347Z,97.70
2018-08-18T20:25:03.964Z,97.70
2018-08-18T20:28:57.917Z,98.00
2018-08-18T20:32:51.983Z,98.40
2018-08-18T20:36:46.131Z,98.50
2018-08-18T20:40:40.058Z,98.90
2018-08-18T20:44:34.329Z,99.10
2018-08-18T20:48:28.411Z,99.60
2018-08-18T20:52:22.503Z,99.80
2018-08-18T20:56:16.528Z,99.90
2018-08-18T21:00:11.477Z,99.90
2018-08-18T21:04:05.518Z,99.90
2018-08-18T21:08:04.157Z,99.90
2018-08-18T21:11:58.131Z,99.90
2018-08-18T21:15:52.468Z,99.90
2018-08-18T21:19:46.466Z,99.90
2018-08-18T21:23:40.379Z,99.90
2018-08-18T21:27:34.469Z,99.90
2018-08-18T21:31:34.525Z,99.90
2018-08-18T21:35:29.370Z,99.90
2018-08-18T21:39:23.327Z,99.90
2018-08-18T21:43:29.673Z,99.90
2018-08-18T21:47:23.594Z,99.90
2018-08-18T21:51:17.639Z,99.90
2018-08-18T21:55:12.389Z,99.90
2018-08-18T21:59:08.063Z,99.90
2018-08-18T22:03:02.055Z,99.90
2018-08-18T22:06:56.019Z,99.90
2018-08-18T22:10:54.194Z,99.90
2018-08-18T22:14:48.658Z,99.90
2018-08-18T22:18:50.100Z,99.90
2018-08-18T22:22:44.157Z,99.90
2018-08-18T22:26:39.327Z,99.90
2018-08-18T22:30:33.311Z,99.90
2018-08-18T22:34:28.383Z,99.90
2018-08-18T22:38:22.287Z,99.90
2018-08-18T22:42:16.295Z,99.90
2018-08-18T22:46:10.270Z,99.90
2018-08-18T22:50:05.023Z,99.90
2018-08-18T22:53:58.968Z,99.90
2018-08-18T22:57:58.050Z,99.90
2018-08-18T23:01:52.040Z,99.90
2018-08-18T23:05:46.001Z,99.90
2018-08-18T23:09:39.871Z,99.90
2018-08-18T23:13:33.777Z,99.90
2018-08-18T23:17:27.730Z,99.90
2018-08-18T23:21:28.697Z,99.90
2018-08-18T23:25:23.741Z,99.90
2018-08-18T23:29:18.509Z,99.90
2018-08-18T23:33:12.460Z,99.90
2018-08-18T23:37:10.666Z,99.90
2018-08-18T23:41:08.882Z,99.90
2018-08-18T23:45:02.814Z,99.90
2018-08-18T23:48:56.747Z,99.90
2018-08-18T23:52:58.758Z,99.90
2018-08-18T23:56:52.915Z,99.90
